sensor_id;sensor_type;location;lat;lon;timestamp;pressure;altitude;pressure_sealevel;temperature
45701;BMP280;36277;32.852;-116.998;2023-06-10T00:00:43;100003.13;;;24.13
45701;BMP280;36277;32.852;-116.998;2023-06-10T00:03:10;100009.25;;;24.08
45701;BMP280;36277;32.852;-116.998;2023-06-10T00:05:36;100004.69;;;24.42
45701;BMP280;36277;32.852;-116.998;2023-06-10T00:08:05;100000.31;;;24.69
45701;BMP280;36277;32.852;-116.998;2023-06-10T00:10:37;100000.03;;;24.91
45701;BMP280;36277;32.852;-116.998;2023-06-10T00:13:05;99999.31;;;25.10
45701;BMP280;36277;32.852;-116.998;2023-06-10T00:15:34;99992.63;;;25.26
45701;BMP280;36277;32.852;-116.998;2023-06-10T00:18:04;99994.41;;;25.39
45701;BMP280;36277;32.852;-116.998;2023-06-10T00:20:31;99980.84;;;25.51
45701;BMP280;36277;32.852;-116.998;2023-06-10T00:22:58;99992.16;;;25.16
45701;BMP280;36277;32.852;-116.998;2023-06-10T00:25:27;99988.44;;;24.75
45701;BMP280;36277;32.852;-116.998;2023-06-10T00:27:54;100000.31;;;24.27
45701;BMP280;36277;32.852;-116.998;2023-06-10T00:30:20;100003.41;;;23.97
45701;BMP280;36277;32.852;-116.998;2023-06-10T00:32:47;100005.09;;;24.18
45701;BMP280;36277;32.852;-116.998;2023-06-10T00:35:13;100007.06;;;24.45
45701;BMP280;36277;32.852;-116.998;2023-06-10T00:37:39;100009.63;;;24.68
45701;BMP280;36277;32.852;-116.998;2023-06-10T00:40:06;100018.91;;;24.88
45701;BMP280;36277;32.852;-116.998;2023-06-10T00:42:35;100011.81;;;25.06
45701;BMP280;36277;32.852;-116.998;2023-06-10T00:45:01;100013.44;;;25.22
45701;BMP280;36277;32.852;-116.998;2023-06-10T00:47:27;100009.25;;;25.32
45701;BMP280;36277;32.852;-116.998;2023-06-10T00:49:54;100012.28;;;25.43
45701;BMP280;36277;32.852;-116.998;2023-06-10T00:52:22;100016.16;;;25.55
45701;BMP280;36277;32.852;-116.998;2023-06-10T00:54:51;100010.69;;;25.22
45701;BMP280;36277;32.852;-116.998;2023-06-10T00:57:18;100011.63;;;24.80
45701;BMP280;36277;32.852;-116.998;2023-06-10T00:59:48;100011.25;;;24.41
45701;BMP280;36277;32.852;-116.998;2023-06-10T01:02:15;100015.94;;;23.99
45701;BMP280;36277;32.852;-116.998;2023-06-10T01:04:41;100011.94;;;24.22
45701;BMP280;36277;32.852;-116.998;2023-06-10T01:15:30;100016.28;;;25.07
45701;BMP280;36277;32.852;-116.998;2023-06-10T01:18:02;100012.50;;;24.87
45701;BMP280;36277;32.852;-116.998;2023-06-10T01:20:30;100024.47;;;24.46
45701;BMP280;36277;32.852;-116.998;2023-06-10T01:22:59;100016.13;;;23.98
45701;BMP280;36277;32.852;-116.998;2023-06-10T01:25:27;100009.25;;;23.73
45701;BMP280;36277;32.852;-116.998;2023-06-10T01:30:53;100012.66;;;23.25
45701;BMP280;36277;32.852;-116.998;2023-06-10T01:33:33;100010.22;;;23.65
45701;BMP280;36277;32.852;-116.998;2023-06-10T01:36:02;100008.72;;;23.98
45701;BMP280;36277;32.852;-116.998;2023-06-10T01:38:33;100004.59;;;24.29
45701;BMP280;36277;32.852;-116.998;2023-06-10T01:41:03;100016.69;;;24.49
45701;BMP280;36277;32.852;-116.998;2023-06-10T01:43:33;100014.75;;;24.71
45701;BMP280;36277;32.852;-116.998;2023-06-10T01:46:00;100024.44;;;24.88
45701;BMP280;36277;32.852;-116.998;2023-06-10T01:48:27;100022.81;;;25.00
45701;BMP280;36277;32.852;-116.998;2023-06-10T01:50:53;100020.53;;;25.10
45701;BMP280;36277;32.852;-116.998;2023-06-10T01:53:22;100019.81;;;25.22
45701;BMP280;36277;32.852;-116.998;2023-06-10T01:55:48;100024.13;;;25.31
45701;BMP280;36277;32.852;-116.998;2023-06-10T01:58:15;100023.75;;;25.40
45701;BMP280;36277;32.852;-116.998;2023-06-10T02:00:44;100021.66;;;25.49
45701;BMP280;36277;32.852;-116.998;2023-06-10T02:03:10;100023.38;;;25.56
45701;BMP280;36277;32.852;-116.998;2023-06-10T02:05:38;100017.06;;;25.69
45701;BMP280;36277;32.852;-116.998;2023-06-10T02:08:05;100015.81;;;25.71
45701;BMP280;36277;32.852;-116.998;2023-06-10T02:10:31;100023.75;;;25.81
45701;BMP280;36277;32.852;-116.998;2023-06-10T02:12:57;100033.75;;;25.88
45701;BMP280;36277;32.852;-116.998;2023-06-10T02:15:27;100029.94;;;25.89
45701;BMP280;36277;32.852;-116.998;2023-06-10T02:17:53;100028.63;;;25.85
45701;BMP280;36277;32.852;-116.998;2023-06-10T02:20:20;100036.53;;;25.95
45701;BMP280;36277;32.852;-116.998;2023-06-10T02:22:46;100034.84;;;26.00
45701;BMP280;36277;32.852;-116.998;2023-06-10T02:25:13;100038.91;;;26.04
45701;BMP280;36277;32.852;-116.998;2023-06-10T02:27:39;100054.66;;;26.10
45701;BMP280;36277;32.852;-116.998;2023-06-10T02:30:06;100046.78;;;26.14
45701;BMP280;36277;32.852;-116.998;2023-06-10T02:32:41;100054.25;;;26.20
45701;BMP280;36277;32.852;-116.998;2023-06-10T02:35:17;100044.06;;;26.20
45701;BMP280;36277;32.852;-116.998;2023-06-10T02:37:43;100053.66;;;26.24
45701;BMP280;36277;32.852;-116.998;2023-06-10T02:40:10;100049.59;;;26.27
45701;BMP280;36277;32.852;-116.998;2023-06-10T02:42:36;100047.91;;;26.26
45701;BMP280;36277;32.852;-116.998;2023-06-10T02:45:03;100039.19;;;26.22
45701;BMP280;36277;32.852;-116.998;2023-06-10T02:47:30;100044.50;;;26.30
45701;BMP280;36277;32.852;-116.998;2023-06-10T02:49:56;100043.25;;;26.33
45701;BMP280;36277;32.852;-116.998;2023-06-10T02:52:22;100049.41;;;26.35
45701;BMP280;36277;32.852;-116.998;2023-06-10T02:54:48;100051.38;;;26.47
45701;BMP280;36277;32.852;-116.998;2023-06-10T02:57:15;100047.34;;;26.49
45701;BMP280;36277;32.852;-116.998;2023-06-10T02:59:41;100036.06;;;26.64
45701;BMP280;36277;32.852;-116.998;2023-06-10T03:02:07;100039.03;;;26.69
45701;BMP280;36277;32.852;-116.998;2023-06-10T03:04:34;100035.44;;;26.75
45701;BMP280;36277;32.852;-116.998;2023-06-10T03:07:00;100045.44;;;26.50
45701;BMP280;36277;32.852;-116.998;2023-06-10T03:09:29;100044.72;;;26.22
45701;BMP280;36277;32.852;-116.998;2023-06-10T03:11:55;100044.63;;;25.96
45701;BMP280;36277;32.852;-116.998;2023-06-10T03:14:21;100050.84;;;26.11
45701;BMP280;36277;32.852;-116.998;2023-06-10T03:16:48;100049.38;;;26.22
45701;BMP280;36277;32.852;-116.998;2023-06-10T03:19:14;100052.78;;;26.30
45701;BMP280;36277;32.852;-116.998;2023-06-10T03:21:44;100057.72;;;26.41
45701;BMP280;36277;32.852;-116.998;2023-06-10T03:24:10;100055.63;;;26.43
45701;BMP280;36277;32.852;-116.998;2023-06-10T03:26:37;100063.28;;;26.47
45701;BMP280;36277;32.852;-116.998;2023-06-10T03:29:03;100056.50;;;26.50
45701;BMP280;36277;32.852;-116.998;2023-06-10T03:31:33;100060.94;;;26.51
45701;BMP280;36277;32.852;-116.998;2023-06-10T03:34:00;100050.50;;;26.53
45701;BMP280;36277;32.852;-116.998;2023-06-10T03:36:32;100055.97;;;26.21
45701;BMP280;36277;32.852;-116.998;2023-06-10T03:39:03;100055.88;;;25.95
45701;BMP280;36277;32.852;-116.998;2023-06-10T03:41:29;100062.06;;;25.56
45701;BMP280;36277;32.852;-116.998;2023-06-10T03:43:57;100057.44;;;25.63
45701;BMP280;36277;32.852;-116.998;2023-06-10T03:46:24;100066.44;;;25.78
45701;BMP280;36277;32.852;-116.998;2023-06-10T03:48:50;100060.34;;;25.89
45701;BMP280;36277;32.852;-116.998;2023-06-10T03:51:16;100066.53;;;25.98
45701;BMP280;36277;32.852;-116.998;2023-06-10T03:53:43;100065.50;;;26.05
45701;BMP280;36277;32.852;-116.998;2023-06-10T03:56:09;100062.97;;;26.10
45701;BMP280;36277;32.852;-116.998;2023-06-10T03:58:35;100065.09;;;26.15
45701;BMP280;36277;32.852;-116.998;2023-06-10T04:01:01;100067.25;;;26.19
45701;BMP280;36277;32.852;-116.998;2023-06-10T04:03:28;100060.25;;;26.23
45701;BMP280;36277;32.852;-116.998;2023-06-10T04:05:54;100064.91;;;26.29
45701;BMP280;36277;32.852;-116.998;2023-06-10T04:08:20;100062.81;;;26.31
45701;BMP280;36277;32.852;-116.998;2023-06-10T04:10:47;100056.84;;;26.34
45701;BMP280;36277;32.852;-116.998;2023-06-10T04:13:14;100061.13;;;26.37
45701;BMP280;36277;32.852;-116.998;2023-06-10T04:15:40;100062.84;;;26.38
45701;BMP280;36277;32.852;-116.998;2023-06-10T04:18:07;100056.84;;;26.40
45701;BMP280;36277;32.852;-116.998;2023-06-10T04:20:33;100057.50;;;26.42
45701;BMP280;36277;32.852;-116.998;2023-06-10T04:22:59;100050.75;;;26.45
45701;BMP280;36277;32.852;-116.998;2023-06-10T04:25:26;100054.72;;;26.30
45701;BMP280;36277;32.852;-116.998;2023-06-10T04:27:54;100067.03;;;26.14
45701;BMP280;36277;32.852;-116.998;2023-06-10T04:30:20;100059.94;;;25.99
45701;BMP280;36277;32.852;-116.998;2023-06-10T04:32:47;100063.34;;;25.94
45701;BMP280;36277;32.852;-116.998;2023-06-10T04:35:15;100064.66;;;25.98
45701;BMP280;36277;32.852;-116.998;2023-06-10T04:37:41;100059.53;;;26.02
45701;BMP280;36277;32.852;-116.998;2023-06-10T04:40:08;100062.31;;;26.08
45701;BMP280;36277;32.852;-116.998;2023-06-10T04:42:35;100071.69;;;26.14
45701;BMP280;36277;32.852;-116.998;2023-06-10T04:45:02;100068.50;;;26.17
45701;BMP280;36277;32.852;-116.998;2023-06-10T04:47:29;100079.81;;;26.22
45701;BMP280;36277;32.852;-116.998;2023-06-10T04:50:00;100074.91;;;26.24
45701;BMP280;36277;32.852;-116.998;2023-06-10T04:52:26;100068.09;;;26.26
45701;BMP280;36277;32.852;-116.998;2023-06-10T04:54:53;100068.75;;;26.28
45701;BMP280;36277;32.852;-116.998;2023-06-10T04:57:20;100066.84;;;26.29
45701;BMP280;36277;32.852;-116.998;2023-06-10T04:59:49;100068.34;;;26.31
45701;BMP280;36277;32.852;-116.998;2023-06-10T05:02:15;100067.28;;;26.32
45701;BMP280;36277;32.852;-116.998;2023-06-10T05:04:42;100070.03;;;26.32
45701;BMP280;36277;32.852;-116.998;2023-06-10T05:07:08;100070.91;;;26.33
45701;BMP280;36277;32.852;-116.998;2023-06-10T05:09:34;100069.63;;;26.35
45701;BMP280;36277;32.852;-116.998;2023-06-10T05:12:01;100070.69;;;26.34
45701;BMP280;36277;32.852;-116.998;2023-06-10T05:14:28;100072.16;;;26.30
45701;BMP280;36277;32.852;-116.998;2023-06-10T05:16:54;100061.28;;;26.16
45701;BMP280;36277;32.852;-116.998;2023-06-10T05:19:20;100057.81;;;25.94
45701;BMP280;36277;32.852;-116.998;2023-06-10T05:21:47;100052.81;;;25.70
45701;BMP280;36277;32.852;-116.998;2023-06-10T05:24:13;100052.03;;;25.49
45701;BMP280;36277;32.852;-116.998;2023-06-10T05:26:40;100058.50;;;25.28
45701;BMP280;36277;32.852;-116.998;2023-06-10T05:29:07;100049.88;;;25.11
45701;BMP280;36277;32.852;-116.998;2023-06-10T05:31:34;100047.59;;;24.93
45701;BMP280;36277;32.852;-116.998;2023-06-10T05:34:01;100053.16;;;25.00
45701;BMP280;36277;32.852;-116.998;2023-06-10T05:36:27;100049.03;;;25.10
45701;BMP280;36277;32.852;-116.998;2023-06-10T05:38:53;100046.59;;;25.22
45701;BMP280;36277;32.852;-116.998;2023-06-10T05:41:20;100050.47;;;25.06
45701;BMP280;36277;32.852;-116.998;2023-06-10T05:43:47;100059.00;;;25.11
45701;BMP280;36277;32.852;-116.998;2023-06-10T05:46:14;100049.28;;;25.15
45701;BMP280;36277;32.852;-116.998;2023-06-10T05:48:40;100060.97;;;25.17
45701;BMP280;36277;32.852;-116.998;2023-06-10T05:51:06;100062.50;;;25.20
45701;BMP280;36277;32.852;-116.998;2023-06-10T05:53:32;100058.78;;;25.06
45701;BMP280;36277;32.852;-116.998;2023-06-10T05:55:59;100054.78;;;24.88
45701;BMP280;36277;32.852;-116.998;2023-06-10T05:58:25;100054.50;;;24.76
45701;BMP280;36277;32.852;-116.998;2023-06-10T06:00:51;100057.13;;;24.84
45701;BMP280;36277;32.852;-116.998;2023-06-10T06:03:17;100052.28;;;24.93
45701;BMP280;36277;32.852;-116.998;2023-06-10T06:05:44;100048.31;;;25.02
45701;BMP280;36277;32.852;-116.998;2023-06-10T06:08:11;100046.44;;;25.09
45701;BMP280;36277;32.852;-116.998;2023-06-10T06:10:39;100049.28;;;25.15
45701;BMP280;36277;32.852;-116.998;2023-06-10T06:13:05;100050.25;;;25.08
45701;BMP280;36277;32.852;-116.998;2023-06-10T06:15:31;100044.06;;;24.99
45701;BMP280;36277;32.852;-116.998;2023-06-10T06:17:58;100042.03;;;24.87
45701;BMP280;36277;32.852;-116.998;2023-06-10T06:20:24;100042.97;;;24.94
45701;BMP280;36277;32.852;-116.998;2023-06-10T06:22:50;100045.94;;;24.99
45701;BMP280;36277;32.852;-116.998;2023-06-10T06:25:16;100041.31;;;25.06
45701;BMP280;36277;32.852;-116.998;2023-06-10T06:27:42;100046.06;;;25.12
45701;BMP280;36277;32.852;-116.998;2023-06-10T06:30:09;100035.06;;;25.18
45701;BMP280;36277;32.852;-116.998;2023-06-10T06:32:35;100038.31;;;25.22
45701;BMP280;36277;32.852;-116.998;2023-06-10T06:35:02;100040.63;;;25.25
45701;BMP280;36277;32.852;-116.998;2023-06-10T06:37:28;100034.69;;;25.27
45701;BMP280;36277;32.852;-116.998;2023-06-10T06:39:54;100035.34;;;25.29
45701;BMP280;36277;32.852;-116.998;2023-06-10T06:42:20;100030.94;;;25.35
45701;BMP280;36277;32.852;-116.998;2023-06-10T06:44:47;100025.19;;;25.36
45701;BMP280;36277;32.852;-116.998;2023-06-10T06:47:13;100027.75;;;25.38
45701;BMP280;36277;32.852;-116.998;2023-06-10T06:49:40;100024.97;;;25.38
45701;BMP280;36277;32.852;-116.998;2023-06-10T06:52:06;100027.16;;;25.42
45701;BMP280;36277;32.852;-116.998;2023-06-10T06:54:32;100025.03;;;25.44
45701;BMP280;36277;32.852;-116.998;2023-06-10T06:56:59;100020.16;;;25.46
45701;BMP280;36277;32.852;-116.998;2023-06-10T06:59:25;100012.53;;;25.48
45701;BMP280;36277;32.852;-116.998;2023-06-10T07:01:51;100018.44;;;25.45
45701;BMP280;36277;32.852;-116.998;2023-06-10T07:04:21;100012.53;;;25.48
45701;BMP280;36277;32.852;-116.998;2023-06-10T07:06:48;100007.59;;;25.50
45701;BMP280;36277;32.852;-116.998;2023-06-10T07:09:14;100008.66;;;25.49
45701;BMP280;36277;32.852;-116.998;2023-06-10T07:11:41;100014.00;;;25.44
45701;BMP280;36277;32.852;-116.998;2023-06-10T07:14:07;100004.72;;;25.25
45701;BMP280;36277;32.852;-116.998;2023-06-10T07:16:34;99997.78;;;25.08
45701;BMP280;36277;32.852;-116.998;2023-06-10T07:19:00;100001.69;;;24.86
45701;BMP280;36277;32.852;-116.998;2023-06-10T07:21:26;100003.50;;;24.72
45701;BMP280;36277;32.852;-116.998;2023-06-10T07:23:54;100003.72;;;24.71
45701;BMP280;36277;32.852;-116.998;2023-06-10T07:26:22;99994.03;;;24.81
45701;BMP280;36277;32.852;-116.998;2023-06-10T07:28:48;99986.84;;;24.87
45701;BMP280;36277;32.852;-116.998;2023-06-10T07:31:14;99985.16;;;24.92
45701;BMP280;36277;32.852;-116.998;2023-06-10T07:33:41;99984.34;;;24.98
45701;BMP280;36277;32.852;-116.998;2023-06-10T07:36:11;99984.22;;;25.06
45701;BMP280;36277;32.852;-116.998;2023-06-10T07:38:38;99993.53;;;25.05
45701;BMP280;36277;32.852;-116.998;2023-06-10T07:41:04;99991.31;;;24.88
45701;BMP280;36277;32.852;-116.998;2023-06-10T07:43:30;99990.97;;;24.70
45701;BMP280;36277;32.852;-116.998;2023-06-10T07:45:57;99994.31;;;24.44
45701;BMP280;36277;32.852;-116.998;2023-06-10T07:48:23;99994.31;;;24.44
45701;BMP280;36277;32.852;-116.998;2023-06-10T07:50:49;99978.50;;;24.53
45701;BMP280;36277;32.852;-116.998;2023-06-10T07:53:15;99974.72;;;24.60
45701;BMP280;36277;32.852;-116.998;2023-06-10T07:55:42;99969.06;;;24.68
45701;BMP280;36277;32.852;-116.998;2023-06-10T07:58:08;99971.22;;;24.73
45701;BMP280;36277;32.852;-116.998;2023-06-10T08:00:34;99958.72;;;24.77
45701;BMP280;36277;32.852;-116.998;2023-06-10T08:03:00;99950.69;;;24.82
45701;BMP280;36277;32.852;-116.998;2023-06-10T08:05:26;99950.13;;;24.59
45701;BMP280;36277;32.852;-116.998;2023-06-10T08:07:53;99948.03;;;24.40
45701;BMP280;36277;32.852;-116.998;2023-06-10T08:10:19;99942.56;;;24.19
45701;BMP280;36277;32.852;-116.998;2023-06-10T08:12:45;99935.34;;;24.18
45701;BMP280;36277;32.852;-116.998;2023-06-10T08:15:11;99937.75;;;24.27
45701;BMP280;36277;32.852;-116.998;2023-06-10T08:17:38;99932.53;;;24.39
45701;BMP280;36277;32.852;-116.998;2023-06-10T08:20:06;99919.66;;;24.46
45701;BMP280;36277;32.852;-116.998;2023-06-10T08:22:32;99910.56;;;24.52
45701;BMP280;36277;32.852;-116.998;2023-06-10T08:24:59;99910.19;;;24.55
45701;BMP280;36277;32.852;-116.998;2023-06-10T08:27:25;99913.59;;;24.57
45701;BMP280;36277;32.852;-116.998;2023-06-10T08:29:52;99933.56;;;24.59
45701;BMP280;36277;32.852;-116.998;2023-06-10T08:32:18;99923.16;;;24.61
45701;BMP280;36277;32.852;-116.998;2023-06-10T08:34:44;99926.59;;;24.63
45701;BMP280;36277;32.852;-116.998;2023-06-10T08:37:10;99920.84;;;24.64
45701;BMP280;36277;32.852;-116.998;2023-06-10T08:39:37;99915.97;;;24.66
45701;BMP280;36277;32.852;-116.998;2023-06-10T08:42:22;99914.53;;;24.70
45701;BMP280;36277;32.852;-116.998;2023-06-10T08:44:54;99924.72;;;24.70
45701;BMP280;36277;32.852;-116.998;2023-06-10T08:47:23;99933.00;;;24.70
45701;BMP280;36277;32.852;-116.998;2023-06-10T08:49:51;99929.38;;;24.69
45701;BMP280;36277;32.852;-116.998;2023-06-10T08:52:24;99928.97;;;24.72
45701;BMP280;36277;32.852;-116.998;2023-06-10T08:55:11;99932.56;;;24.73
45701;BMP280;36277;32.852;-116.998;2023-06-10T08:57:38;99927.50;;;24.70
45701;BMP280;36277;32.852;-116.998;2023-06-10T09:00:07;99923.47;;;24.72
45701;BMP280;36277;32.852;-116.998;2023-06-10T09:02:34;99904.13;;;24.72
45701;BMP280;36277;32.852;-116.998;2023-06-10T09:05:03;99910.50;;;24.73
45701;BMP280;36277;32.852;-116.998;2023-06-10T09:07:31;99905.63;;;24.75
45701;BMP280;36277;32.852;-116.998;2023-06-10T09:09:59;99902.69;;;24.76
45701;BMP280;36277;32.852;-116.998;2023-06-10T09:12:28;99901.16;;;24.74
45701;BMP280;36277;32.852;-116.998;2023-06-10T09:14:55;99906.50;;;24.75
45701;BMP280;36277;32.852;-116.998;2023-06-10T09:17:22;99901.63;;;24.77
45701;BMP280;36277;32.852;-116.998;2023-06-10T09:19:49;99899.91;;;24.76
45701;BMP280;36277;32.852;-116.998;2023-06-10T09:22:16;99891.63;;;24.76
45701;BMP280;36277;32.852;-116.998;2023-06-10T09:24:42;99898.00;;;24.77
45701;BMP280;36277;32.852;-116.998;2023-06-10T09:27:08;99896.94;;;24.78
45701;BMP280;36277;32.852;-116.998;2023-06-10T09:29:51;99891.25;;;24.79
45701;BMP280;36277;32.852;-116.998;2023-06-10T09:32:18;99894.19;;;24.78
45701;BMP280;36277;32.852;-116.998;2023-06-10T09:34:45;99895.25;;;24.77
45701;BMP280;36277;32.852;-116.998;2023-06-10T09:37:12;99888.47;;;24.79
45701;BMP280;36277;32.852;-116.998;2023-06-10T09:39:40;99885.50;;;24.81
45701;BMP280;36277;32.852;-116.998;2023-06-10T09:42:16;99888.91;;;24.83
45701;BMP280;36277;32.852;-116.998;2023-06-10T09:44:50;99891.66;;;24.83
45701;BMP280;36277;32.852;-116.998;2023-06-10T09:47:21;99888.91;;;24.83
45701;BMP280;36277;32.852;-116.998;2023-06-10T09:49:49;99869.59;;;24.83
45701;BMP280;36277;32.852;-116.998;2023-06-10T09:52:26;99860.91;;;24.86
45701;BMP280;36277;32.852;-116.998;2023-06-10T09:54:55;99860.25;;;24.84
45701;BMP280;36277;32.852;-116.998;2023-06-10T09:57:25;99860.25;;;24.84
45701;BMP280;36277;32.852;-116.998;2023-06-10T09:59:55;99859.84;;;24.87
45701;BMP280;36277;32.852;-116.998;2023-06-10T10:02:21;99850.06;;;24.84
45701;BMP280;36277;32.852;-116.998;2023-06-10T10:04:48;99840.72;;;24.85
45701;BMP280;36277;32.852;-116.998;2023-06-10T10:07:14;99829.66;;;24.85
45701;BMP280;36277;32.852;-116.998;2023-06-10T10:09:41;99826.72;;;24.87
45701;BMP280;36277;32.852;-116.998;2023-06-10T10:12:13;99812.69;;;24.88
45701;BMP280;36277;32.852;-116.998;2023-06-10T10:14:46;99813.56;;;24.89
45701;BMP280;36277;32.852;-116.998;2023-06-10T10:17:15;99816.50;;;24.87
45701;BMP280;36277;32.852;-116.998;2023-06-10T10:19:54;99814.22;;;24.91
45701;BMP280;36277;32.852;-116.998;2023-06-10T10:22:26;99817.38;;;24.88
45701;BMP280;36277;32.852;-116.998;2023-06-10T10:25:06;99819.72;;;24.91
45701;BMP280;36277;32.852;-116.998;2023-06-10T10:27:39;99809.75;;;24.90
45701;BMP280;36277;32.852;-116.998;2023-06-10T10:30:07;99805.28;;;24.89
45701;BMP280;36277;32.852;-116.998;2023-06-10T10:35:46;99815.69;;;24.87
45701;BMP280;36277;32.852;-116.998;2023-06-10T10:38:12;99809.09;;;24.88
45701;BMP280;36277;32.852;-116.998;2023-06-10T10:40:39;99801.66;;;24.88
45701;BMP280;36277;32.852;-116.998;2023-06-10T10:43:07;99795.94;;;24.90
45701;BMP280;36277;32.852;-116.998;2023-06-10T10:45:34;99797.84;;;24.89
45701;BMP280;36277;32.852;-116.998;2023-06-10T10:48:07;99792.78;;;24.93
45701;BMP280;36277;32.852;-116.998;2023-06-10T10:50:38;99784.91;;;24.90
45701;BMP280;36277;32.852;-116.998;2023-06-10T10:53:05;99795.72;;;24.91
45701;BMP280;36277;32.852;-116.998;2023-06-10T10:55:32;99801.06;;;24.93
45701;BMP280;36277;32.852;-116.998;2023-06-10T10:58:02;99792.78;;;24.93
45701;BMP280;36277;32.852;-116.998;2023-06-10T11:00:34;99778.31;;;24.84
45701;BMP280;36277;32.852;-116.998;2023-06-10T11:05:41;99782.13;;;24.43
45701;BMP280;36277;32.852;-116.998;2023-06-10T11:08:11;99789.63;;;24.21
45701;BMP280;36277;32.852;-116.998;2023-06-10T11:10:41;99790.34;;;24.03
45701;BMP280;36277;32.852;-116.998;2023-06-10T11:13:19;99790.63;;;23.87
45701;BMP280;36277;32.852;-116.998;2023-06-10T11:15:47;99790.84;;;23.85
45701;BMP280;36277;32.852;-116.998;2023-06-10T11:18:24;99796.91;;;24.02
45701;BMP280;36277;32.852;-116.998;2023-06-10T11:21:01;99795.69;;;24.11
45701;BMP280;36277;32.852;-116.998;2023-06-10T11:31:23;99772.50;;;24.32
45701;BMP280;36277;32.852;-116.998;2023-06-10T11:33:55;99767.19;;;24.31
45701;BMP280;36277;32.852;-116.998;2023-06-10T11:36:22;99762.72;;;24.30
45701;BMP280;36277;32.852;-116.998;2023-06-10T11:38:51;99773.34;;;24.33
45701;BMP280;36277;32.852;-116.998;2023-06-10T11:41:19;99775.28;;;24.32
45701;BMP280;36277;32.852;-116.998;2023-06-10T11:43:46;99782.28;;;24.35
45701;BMP280;36277;32.852;-116.998;2023-06-10T11:46:14;99789.09;;;24.39
45701;BMP280;36277;32.852;-116.998;2023-06-10T11:48:54;99791.44;;;24.42
45701;BMP280;36277;32.852;-116.998;2023-06-10T11:51:21;99804.78;;;24.38
45701;BMP280;36277;32.852;-116.998;2023-06-10T11:53:50;99796.09;;;24.41
45701;BMP280;36277;32.852;-116.998;2023-06-10T11:56:24;99788.47;;;24.43
45701;BMP280;36277;32.852;-116.998;2023-06-10T11:59:03;99794.84;;;24.44
45701;BMP280;36277;32.852;-116.998;2023-06-10T12:01:35;99790.38;;;24.43
45701;BMP280;36277;32.852;-116.998;2023-06-10T12:04:05;99792.09;;;24.44
45701;BMP280;36277;32.852;-116.998;2023-06-10T12:06:47;99787.03;;;24.47
45701;BMP280;36277;32.852;-116.998;2023-06-10T12:09:19;99786.56;;;24.44
45701;BMP280;36277;32.852;-116.998;2023-06-10T12:11:48;99783.59;;;24.45
45701;BMP280;36277;32.852;-116.998;2023-06-10T12:14:14;99788.28;;;24.45
45701;BMP280;36277;32.852;-116.998;2023-06-10T12:16:48;99788.53;;;24.50
45701;BMP280;36277;32.852;-116.998;2023-06-10T12:19:15;99784.47;;;24.46
45701;BMP280;36277;32.852;-116.998;2023-06-10T12:21:41;99787.03;;;24.47
45701;BMP280;36277;32.852;-116.998;2023-06-10T12:24:09;99795.97;;;24.49
45701;BMP280;36277;32.852;-116.998;2023-06-10T12:26:40;99802.31;;;24.50
45701;BMP280;36277;32.852;-116.998;2023-06-10T12:29:16;99803.84;;;24.52
45701;BMP280;36277;32.852;-116.998;2023-06-10T12:32:03;99813.34;;;24.50
45701;BMP280;36277;32.852;-116.998;2023-06-10T12:34:35;99812.53;;;24.49
45701;BMP280;36277;32.852;-116.998;2023-06-10T12:37:04;99815.28;;;24.49
45701;BMP280;36277;32.852;-116.998;2023-06-10T12:39:32;99816.13;;;24.50
45701;BMP280;36277;32.852;-116.998;2023-06-10T12:41:59;99819.75;;;24.50
45701;BMP280;36277;32.852;-116.998;2023-06-10T12:44:33;99815.72;;;24.53
45701;BMP280;36277;32.852;-116.998;2023-06-10T12:47:01;99815.06;;;24.51
45701;BMP280;36277;32.852;-116.998;2023-06-10T12:49:32;99816.13;;;24.50
45701;BMP280;36277;32.852;-116.998;2023-06-10T12:51:58;99819.75;;;24.50
45701;BMP280;36277;32.852;-116.998;2023-06-10T12:54:25;99814.88;;;24.52
45701;BMP280;36277;32.852;-116.998;2023-06-10T12:56:51;99817.63;;;24.52
45701;BMP280;36277;32.852;-116.998;2023-06-10T12:59:18;99817.63;;;24.52
45701;BMP280;36277;32.852;-116.998;2023-06-10T13:01:50;99833.78;;;24.55
45701;BMP280;36277;32.852;-116.998;2023-06-10T13:04:17;99828.66;;;24.52
45701;BMP280;36277;32.852;-116.998;2023-06-10T13:06:44;99820.41;;;24.52
45701;BMP280;36277;32.852;-116.998;2023-06-10T13:09:10;99814.66;;;24.54
45701;BMP280;36277;32.852;-116.998;2023-06-10T13:11:36;99814.66;;;24.54
45701;BMP280;36277;32.852;-116.998;2023-06-10T13:14:04;99805.31;;;24.55
45701;BMP280;36277;32.852;-116.998;2023-06-10T13:16:32;99802.78;;;24.53
45701;BMP280;36277;32.852;-116.998;2023-06-10T13:18:59;99807.44;;;24.53
45701;BMP280;36277;32.852;-116.998;2023-06-10T13:21:27;99808.31;;;24.53
45701;BMP280;36277;32.852;-116.998;2023-06-10T13:23:53;99799.16;;;24.53
45701;BMP280;36277;32.852;-116.998;2023-06-10T13:26:19;99803.63;;;24.54
45701;BMP280;36277;32.852;-116.998;2023-06-10T13:28:46;99809.13;;;24.54
45701;BMP280;36277;32.852;-116.998;2023-06-10T13:31:12;99820.19;;;24.54
45701;BMP280;36277;32.852;-116.998;2023-06-10T13:33:38;99812.78;;;24.54
45701;BMP280;36277;32.852;-116.998;2023-06-10T13:36:05;99822.09;;;24.53
45701;BMP280;36277;32.852;-116.998;2023-06-10T13:38:31;99833.13;;;24.53
45701;BMP280;36277;32.852;-116.998;2023-06-10T13:40:57;99828.47;;;24.54
45701;BMP280;36277;32.852;-116.998;2023-06-10T13:43:23;99841.19;;;24.55
45701;BMP280;36277;32.852;-116.998;2023-06-10T13:45:50;99843.13;;;24.54
45701;BMP280;36277;32.852;-116.998;2023-06-10T13:48:16;99849.47;;;24.55
45701;BMP280;36277;32.852;-116.998;2023-06-10T13:50:42;99852.22;;;24.55
45701;BMP280;36277;32.852;-116.998;2023-06-10T13:53:12;99859.47;;;24.56
45701;BMP280;36277;32.852;-116.998;2023-06-10T13:55:38;99861.38;;;24.55